Time;durP1;ratioP1;P1;durP2;ratioP2;P2;SDS_P1;SDS_P2;PMS_P1;PMS_P2;Temp;Humidity;BMP_temperature;BMP_pressure;BME280_temperature;BME280_humidity;BME280_pressure;Samples;Min_cycle;Max_cycle;Signal;HPM_P1;HPM_P2
2023/05/21 00:02:03;;;;;;;28.75;21.20;;;14.20;99.90;;;;;;6286747;22;20072;-88
2023/05/21 00:04:50;;;;;;;28.00;22.10;;;14.20;99.90;;;;;;6284184;22;20031;-86
2023/05/21 00:07:40;;;;;;;31.20;21.77;;;14.10;99.90;;;;;;6284878;22;20027;-87
2023/05/21 00:10:27;;;;;;;31.48;21.88;;;14.20;99.90;;;;;;6284446;22;20427;-89
2023/05/21 00:13:15;;;;;;;28.38;21.63;;;14.10;99.90;;;;;;6283655;22;20136;-87
2023/05/21 00:16:02;;;;;;;29.30;21.95;;;14.10;99.90;;;;;;6285905;22;20470;-90
2023/05/21 00:18:50;;;;;;;28.65;20.98;;;14.00;1.00;;;;;;6284634;22;20034;-88
2023/05/21 00:21:38;;;;;;;29.83;22.58;;;14.00;1.00;;;;;;6285162;22;20092;-90
2023/05/21 00:24:31;;;;;;;31.60;22.67;;;13.90;1.00;;;;;;6282759;22;20310;-87
2023/05/21 00:27:20;;;;;;;31.42;22.92;;;13.90;78.30;;;;;;6285342;22;20065;-88
2023/05/21 00:30:08;;;;;;;29.25;22.88;;;13.80;99.90;;;;;;6283339;22;20437;-90
2023/05/21 00:32:57;;;;;;;30.85;23.48;;;13.70;99.90;;;;;;6285023;22;20041;-88
2023/05/21 00:35:45;;;;;;;30.65;23.20;;;13.70;99.90;;;;;;6286517;22;20407;-87
2023/05/21 00:38:32;;;;;;;30.48;22.92;;;13.70;1.00;;;;;;6285133;22;20124;-88
2023/05/21 00:41:21;;;;;;;33.28;23.55;;;13.60;88.40;;;;;;6286399;22;20098;-85
2023/05/21 00:44:12;;;;;;;32.40;24.63;;;13.60;99.90;;;;;;6313422;22;20035;-86
2023/05/21 00:47:02;;;;;;;35.65;24.88;;;13.60;99.90;;;;;;6300220;22;20061;-88
2023/05/21 00:49:52;;;;;;;30.20;25.15;;;13.50;1.00;;;;;;6291534;22;20059;-89
2023/05/21 00:52:44;;;;;;;35.33;25.83;;;13.50;99.90;;;;;;6307416;22;20027;-87
2023/05/21 00:55:32;;;;;;;37.67;26.08;;;13.50;99.90;;;;;;6283932;22;20031;-85
2023/05/21 00:58:22;;;;;;;42.13;28.27;;;13.40;1.00;;;;;;6285021;22;20562;-87
2023/05/21 01:01:12;;;;;;;37.10;27.17;;;13.40;99.90;;;;;;6284743;22;20038;-86
2023/05/21 01:04:02;;;;;;;36.67;26.38;;;13.40;99.90;;;;;;6284653;22;20299;-86
2023/05/21 01:06:49;;;;;;;36.83;27.75;;;13.40;99.90;;;;;;6284667;22;20193;-88
2023/05/21 01:09:37;;;;;;;39.58;28.75;;;13.40;99.90;;;;;;6283341;22;20482;-89
2023/05/21 01:12:25;;;;;;;39.35;27.33;;;13.40;38.80;;;;;;6286398;22;20027;-86
2023/05/21 01:15:15;;;;;;;39.13;27.65;;;13.40;99.90;;;;;;6283537;22;20446;-89
2023/05/21 01:18:06;;;;;;;37.47;26.95;;;13.30;99.90;;;;;;6284178;22;20102;-88
2023/05/21 01:20:57;;;;;;;39.67;28.67;;;13.30;99.90;;;;;;6284683;22;20023;-88
2023/05/21 01:23:44;;;;;;;37.40;27.13;;;13.30;1.00;;;;;;6285356;22;20416;-89
2023/05/21 01:26:37;;;;;;;38.50;28.42;;;13.20;99.90;;;;;;6285528;22;20088;-87
2023/05/21 01:29:24;;;;;;;38.67;28.27;;;13.20;99.90;;;;;;6284610;22;20034;-85
2023/05/21 01:32:21;;;;;;;42.85;28.83;;;13.20;40.50;;;;;;6284916;22;20200;-86
2023/05/21 01:35:13;;;;;;;41.13;30.90;;;13.10;99.90;;;;;;6285248;22;20015;-88
2023/05/21 01:38:25;;;;;;;39.85;29.38;;;13.20;99.90;;;;;;6285451;22;20027;-85
2023/05/21 01:41:17;;;;;;;38.05;28.27;;;13.10;1.00;;;;;;6307661;22;20116;-90
2023/05/21 01:44:07;;;;;;;36.30;28.08;;;13.20;1.00;;;;;;6300475;22;20023;-85
2023/05/21 01:47:01;;;;;;;39.92;29.00;;;13.10;1.00;;;;;;6299454;22;20102;-87
2023/05/21 01:49:52;;;;;;;40.10;29.13;;;13.10;1.00;;;;;;6303035;22;20034;-80
2023/05/21 01:52:51;;;;;;;40.15;29.85;;;13.00;47.80;;;;;;6310287;22;20007;-81
2023/05/21 01:55:40;;;;;;;45.53;30.63;;;13.00;99.90;;;;;;6310328;22;20031;-84
2023/05/21 01:58:28;;;;;;;42.22;30.17;;;13.00;99.90;;;;;;6309788;22;20007;-87
2023/05/21 02:01:15;;;;;;;43.08;30.00;;;13.00;99.90;;;;;;6310517;22;20015;-85
2023/05/21 02:04:05;;;;;;;43.25;31.75;;;13.00;99.90;;;;;;6309439;22;20019;-83
2023/05/21 02:06:53;;;;;;;42.25;31.10;;;12.90;99.90;;;;;;6303208;22;20026;-89
2023/05/21 02:09:41;;;;;;;39.28;29.58;;;13.00;99.90;;;;;;6291899;22;20100;-88
2023/05/21 02:12:28;;;;;;;40.80;28.60;;;12.90;99.90;;;;;;6282703;22;20023;-89
2023/05/21 02:15:18;;;;;;;40.10;29.58;;;12.90;99.90;;;;;;6283226;22;20050;-85
2023/05/21 02:18:05;;;;;;;42.05;30.48;;;12.80;99.90;;;;;;6283473;22;20418;-87
2023/05/21 02:20:53;;;;;;;46.33;31.58;;;12.90;99.90;;;;;;6284416;22;20023;-87
2023/05/21 02:23:41;;;;;;;43.95;31.95;;;12.80;99.90;;;;;;6281531;22;20119;-88
2023/05/21 02:26:28;;;;;;;45.50;32.65;;;12.80;99.90;;;;;;6283529;22;20023;-89
2023/05/21 02:29:16;;;;;;;42.55;31.02;;;12.70;99.90;;;;;;6282896;22;20042;-86
2023/05/21 02:32:04;;;;;;;46.03;32.67;;;12.70;99.90;;;;;;6284606;22;20062;-88
2023/05/21 02:34:52;;;;;;;46.25;32.60;;;12.70;99.90;;;;;;6281851;22;20384;-89
2023/05/21 02:37:39;;;;;;;43.38;32.42;;;12.60;99.90;;;;;;6283608;22;20019;-90
2023/05/21 02:40:27;;;;;;;47.08;32.78;;;12.60;99.90;;;;;;6284595;22;20027;-86
2023/05/21 02:43:19;;;;;;;47.33;32.47;;;12.50;99.90;;;;;;6281555;22;20055;-87
2023/05/21 02:46:09;;;;;;;47.78;34.15;;;12.50;99.90;;;;;;6282458;22;20023;-88
2023/05/21 02:48:58;;;;;;;48.40;34.47;;;12.50;99.90;;;;;;6283750;22;20054;-88
2023/05/21 02:51:45;;;;;;;48.38;33.38;;;12.40;99.90;;;;;;6281446;22;20031;-88
2023/05/21 02:54:33;;;;;;;46.10;32.75;;;12.40;99.90;;;;;;6282169;22;20059;-88
2023/05/21 02:57:20;;;;;;;44.20;32.33;;;12.30;99.90;;;;;;6283921;22;20066;-87
2023/05/21 03:00:08;;;;;;;46.78;34.45;;;12.30;99.90;;;;;;6281525;22;20027;-86
2023/05/21 03:02:56;;;;;;;48.35;35.10;;;12.30;99.90;;;;;;6283607;22;20088;-86
2023/05/21 03:05:44;;;;;;;51.25;36.25;;;12.30;99.90;;;;;;6282940;22;20447;-87
2023/05/21 03:08:36;;;;;;;52.63;34.72;;;12.20;99.90;;;;;;6283466;22;20133;-86
2023/05/21 03:11:26;;;;;;;52.85;35.83;;;12.20;99.90;;;;;;6284682;22;20031;-88
2023/05/21 03:14:13;;;;;;;55.53;37.92;;;12.20;99.90;;;;;;6282697;22;20033;-87
2023/05/21 03:17:04;;;;;;;55.70;36.67;;;12.20;99.90;;;;;;6286572;22;20481;-89
2023/05/21 03:19:53;;;;;;;53.95;37.20;;;12.20;99.90;;;;;;6284423;22;20027;-88
2023/05/21 03:22:47;;;;;;;56.10;36.72;;;12.10;99.90;;;;;;6285650;22;20509;-89
2023/05/21 03:25:35;;;;;;;56.42;37.90;;;12.10;99.90;;;;;;6283558;22;20023;-89
2023/05/21 03:28:23;;;;;;;52.55;37.15;;;12.00;99.90;;;;;;6285536;22;20161;-89
2023/05/21 03:31:15;;;;;;;59.10;38.67;;;12.00;99.90;;;;;;6284934;22;20442;-88
2023/05/21 03:34:03;;;;;;;58.88;38.50;;;12.00;99.90;;;;;;6288125;22;20369;-88
2023/05/21 03:36:51;;;;;;;57.00;39.08;;;12.00;99.90;;;;;;6284508;22;20026;-89
2023/05/21 03:39:38;;;;;;;54.50;38.70;;;11.90;99.90;;;;;;6285146;22;20019;-87
2023/05/21 03:42:25;;;;;;;58.28;39.55;;;12.00;99.90;;;;;;6284433;22;20023;-89
2023/05/21 03:45:13;;;;;;;56.78;39.15;;;11.90;99.90;;;;;;6284062;22;20023;-89
2023/05/21 03:48:00;;;;;;;59.08;39.80;;;11.90;99.90;;;;;;6284652;22;20031;-89
2023/05/21 03:50:48;;;;;;;59.85;39.55;;;11.90;99.90;;;;;;6286171;22;20034;-88
2023/05/21 03:53:35;;;;;;;59.55;39.47;;;12.00;99.90;;;;;;6284931;22;20076;-89
2023/05/21 03:56:23;;;;;;;56.00;38.20;;;12.00;99.90;;;;;;6284682;22;20419;-88
2023/05/21 03:59:10;;;;;;;52.38;36.70;;;11.90;99.90;;;;;;6283242;22;20019;-88
2023/05/21 04:02:01;;;;;;;62.13;39.88;;;11.90;99.90;;;;;;6285519;22;20094;-86
2023/05/21 04:04:50;;;;;;;62.35;39.35;;;11.90;99.90;;;;;;6285791;22;20027;-87
2023/05/21 04:07:38;;;;;;;62.97;40.28;;;12.00;99.90;;;;;;6285311;22;20038;-88
2023/05/21 04:10:25;;;;;;;60.45;40.38;;;12.00;99.90;;;;;;6286582;22;20046;-87
2023/05/21 04:13:13;;;;;;;67.13;43.75;;;12.00;99.90;;;;;;6286027;22;20019;-87
2023/05/21 04:16:00;;;;;;;59.33;41.20;;;12.00;99.90;;;;;;6284534;22;20090;-88
2023/05/21 04:18:48;;;;;;;69.43;43.63;;;12.10;99.90;;;;;;6283156;22;20023;-88
2023/05/21 04:21:40;;;;;;;67.60;42.67;;;12.10;99.90;;;;;;6284727;22;20073;-87
2023/05/21 04:24:28;;;;;;;65.43;41.65;;;12.20;99.90;;;;;;6287802;22;20027;-86
2023/05/21 04:27:15;;;;;;;62.17;41.95;;;12.20;99.90;;;;;;6285327;22;20065;-87
2023/05/21 04:30:06;;;;;;;65.95;43.85;;;12.20;99.90;;;;;;6284104;22;20410;-88
2023/05/21 04:32:53;;;;;;;59.38;40.38;;;12.20;99.90;;;;;;6284621;22;20023;-89
2023/05/21 04:35:43;;;;;;;63.05;40.75;;;12.30;99.90;;;;;;6284436;22;20561;-87
2023/05/21 04:38:31;;;;;;;62.83;40.20;;;12.30;99.90;;;;;;6293651;22;20019;-88
2023/05/21 04:41:20;;;;;;;55.72;39.80;;;12.30;99.90;;;;;;6294414;22;20046;-89
2023/05/21 04:44:07;;;;;;;60.55;40.20;;;12.30;99.90;;;;;;6310442;22;20028;-87
2023/05/21 04:46:56;;;;;;;54.70;38.70;;;12.40;99.90;;;;;;6284600;22;20430;-88
2023/05/21 04:49:47;;;;;;;54.28;38.17;;;12.40;99.90;;;;;;6285584;22;20058;-89
2023/05/21 04:52:34;;;;;;;51.92;35.55;;;12.40;99.90;;;;;;6284849;22;20039;-88
2023/05/21 04:55:22;;;;;;;49.80;35.58;;;12.50;99.90;;;;;;6283965;22;20318;-87
2023/05/21 04:58:12;;;;;;;48.85;35.08;;;12.60;99.90;;;;;;6285526;22;20019;-89
2023/05/21 05:01:02;;;;;;;48.10;33.92;;;12.60;99.90;;;;;;6283921;22;20431;-88
2023/05/21 05:03:50;;;;;;;53.70;36.72;;;12.70;99.90;;;;;;6284359;22;20038;-89
2023/05/21 05:06:38;;;;;;;50.50;35.40;;;12.80;99.90;;;;;;6285552;22;20034;-87
2023/05/21 05:09:25;;;;;;;48.42;34.63;;;12.90;99.90;;;;;;6284039;22;20102;-89
2023/05/21 05:12:13;;;;;;;45.75;32.13;;;13.00;99.90;;;;;;6283193;22;20027;-89
2023/05/21 05:15:03;;;;;;;44.33;32.58;;;13.00;99.90;;;;;;6286713;22;20031;-88
2023/05/21 05:17:50;;;;;;;44.97;33.00;;;13.10;99.90;;;;;;6284995;22;20345;-90
2023/05/21 05:20:40;;;;;;;45.25;31.52;;;13.10;99.90;;;;;;6284843;22;20023;-89
2023/05/21 05:23:27;;;;;;;44.40;31.58;;;13.10;99.90;;;;;;6284755;22;20031;-89
2023/05/21 05:26:15;;;;;;;45.08;32.47;;;13.00;99.90;;;;;;6283893;22;20422;-89
2023/05/21 05:29:06;;;;;;;46.40;32.13;;;13.10;99.90;;;;;;6285530;22;20062;-88
2023/05/21 05:31:53;;;;;;;40.28;32.30;;;13.10;99.90;;;;;;6284380;22;20488;-89
2023/05/21 05:34:45;;;;;;;44.35;31.75;;;13.30;99.90;;;;;;6285668;22;20038;-89
2023/05/21 05:37:32;;;;;;;44.35;32.30;;;13.40;99.90;;;;;;6283676;22;20027;-89
2023/05/21 05:40:20;;;;;;;43.60;30.40;;;13.40;99.90;;;;;;6283027;22;20023;-88
2023/05/21 05:43:10;;;;;;;41.50;30.73;;;13.40;99.90;;;;;;6285653;22;20156;-88
2023/05/21 05:45:58;;;;;;;41.75;30.05;;;13.50;99.90;;;;;;6285665;22;20343;-87
2023/05/21 05:48:46;;;;;;;41.35;31.48;;;13.60;99.90;;;;;;6284705;22;20019;-88
2023/05/21 05:51:37;;;;;;;39.65;29.52;;;13.70;83.40;;;;;;6283339;22;20098;-88
2023/05/21 05:54:24;;;;;;;42.75;29.05;;;13.80;1.00;;;;;;6284954;22;20045;-89
2023/05/21 05:57:11;;;;;;;37.35;28.00;;;13.90;99.90;;;;;;6283562;22;20023;-88
2023/05/21 05:59:59;;;;;;;36.47;28.13;;;14.00;99.90;;;;;;6285121;22;20098;-89
2023/05/21 06:02:47;;;;;;;35.72;27.10;;;14.10;9.70;;;;;;6284174;22;20059;-89
2023/05/21 06:05:35;;;;;;;37.55;26.20;;;14.30;99.90;;;;;;6285362;22;20114;-88
2023/05/21 06:08:24;;;;;;;35.08;24.77;;;14.60;1.00;;;;;;6283939;22;20037;-88
2023/05/21 06:11:11;;;;;;;32.60;24.80;;;14.80;1.00;;;;;;6285911;22;20042;-90
2023/05/21 06:14:02;;;;;;;29.20;22.92;;;15.00;99.90;;;;;;6285026;22;20019;-88
2023/05/21 06:16:51;;;;;;;29.38;23.00;;;15.10;99.90;;;;;;6287613;22;20464;-88
2023/05/21 06:19:39;;;;;;;29.50;22.27;;;15.20;1.00;;;;;;6285344;22;20410;-88
2023/05/21 06:22:27;;;;;;;31.95;22.40;;;15.30;99.90;;;;;;6286928;22;20102;-89
2023/05/21 06:25:17;;;;;;;31.05;21.95;;;15.50;54.30;;;;;;6286901;22;20288;-90
2023/05/21 06:28:06;;;;;;;28.90;22.40;;;15.60;99.90;;;;;;6290297;22;20030;-90
2023/05/21 06:30:55;;;;;;;28.38;21.08;;;15.80;99.90;;;;;;6286742;22;20037;-89
2023/05/21 06:33:42;;;;;;;28.60;19.70;;;15.90;1.00;;;;;;6286742;22;20326;-89
2023/05/21 06:36:32;;;;;;;24.85;19.45;;;16.10;99.90;;;;;;6286131;22;20019;-89
2023/05/21 06:39:19;;;;;;;30.25;20.17;;;16.20;99.90;;;;;;6284773;22;20027;-90
2023/05/21 06:42:07;;;;;;;24.38;20.13;;;16.20;1.00;;;;;;6283225;22;20054;-89
2023/05/21 06:44:54;;;;;;;25.65;19.80;;;16.20;1.00;;;;;;6283857;22;20031;-89
2023/05/21 06:47:45;;;;;;;23.88;19.42;;;16.30;99.90;;;;;;6285687;22;20037;-89
2023/05/21 06:50:33;;;;;;;23.05;18.80;;;16.40;99.90;;;;;;6285590;22;20023;-89
2023/05/21 06:53:21;;;;;;;28.55;18.67;;;16.50;99.90;;;;;;6285148;22;20034;-89
2023/05/21 06:56:08;;;;;;;23.38;18.67;;;16.60;99.90;;;;;;6283502;22;20038;-89
2023/05/21 06:58:56;;;;;;;22.75;18.20;;;16.60;99.90;;;;;;6284914;22;20109;-88
2023/05/21 07:01:43;;;;;;;24.10;19.50;;;16.80;72.10;;;;;;6284321;22;20516;-90
2023/05/21 07:04:34;;;;;;;26.83;19.58;;;16.90;1.00;;;;;;6285540;22;20306;-90
2023/05/21 07:07:21;;;;;;;24.50;18.15;;;17.00;1.00;;;;;;6284747;22;20102;-90
2023/05/21 07:10:09;;;;;;;20.80;17.25;;;17.30;1.00;;;;;;6283947;22;20370;-90
2023/05/21 07:12:56;;;;;;;20.08;16.13;;;17.60;1.00;;;;;;6282716;22;20089;-89
2023/05/21 07:15:44;;;;;;;21.55;16.25;;;17.90;99.90;;;;;;6283766;22;20045;-88
2023/05/21 07:18:31;;;;;;;17.35;13.95;;;18.40;99.90;;;;;;6282719;22;20037;-86
2023/05/21 07:21:20;;;;;;;16.38;14.23;;;19.10;99.90;;;;;;6283604;22;20038;-90
2023/05/21 07:24:09;;;;;;;17.33;13.82;;;19.80;99.90;;;;;;6284875;22;20027;-88
2023/05/21 07:27:00;;;;;;;20.05;14.60;;;20.10;1.00;;;;;;6284874;22;20026;-90
2023/05/21 07:30:08;;;;;;;16.23;13.48;;;20.80;1.00;;;;;;6288089;22;20019;-90
2023/05/21 07:33:11;;;;;;;15.50;12.93;;;21.20;1.00;;;;;;6286116;22;20030;-89
2023/05/21 07:35:58;;;;;;;16.77;13.18;;;21.70;99.90;;;;;;6285407;22;20318;-88
2023/05/21 07:38:46;;;;;;;15.10;13.55;;;21.80;99.90;;;;;;6284024;22;20019;-91
2023/05/21 07:41:35;;;;;;;15.20;13.38;;;21.50;99.90;;;;;;6286597;22;20292;-90
2023/05/21 07:44:23;;;;;;;15.00;11.98;;;21.50;99.90;;;;;;6286965;22;20098;-91
2023/05/21 07:47:11;;;;;;;17.15;13.50;;;21.90;99.90;;;;;;6307971;22;20037;-91
2023/05/21 07:50:03;;;;;;;17.27;12.48;;;21.70;99.90;;;;;;6286832;22;20053;-90
2023/05/21 07:52:50;;;;;;;15.23;11.75;;;22.10;99.90;;;;;;6299410;22;20051;-90
2023/05/21 07:55:46;;;;;;;14.85;12.15;;;22.60;99.90;;;;;;6299972;22;20034;-92
2023/05/21 07:58:39;;;;;;;14.20;11.65;;;23.40;99.90;;;;;;6300709;22;20068;-92
2023/05/21 08:01:28;;;;;;;13.10;11.43;;;23.70;99.90;;;;;;6303177;22;20027;-90
2023/05/21 08:04:15;;;;;;;15.23;11.45;;;24.20;99.90;;;;;;6306289;22;20027;-88
2023/05/21 08:07:04;;;;;;;13.52;11.15;;;23.80;99.90;;;;;;6306344;22;20466;-90
2023/05/21 08:09:53;;;;;;;14.77;12.20;;;23.60;99.90;;;;;;6302695;22;20082;-90
2023/05/21 08:12:41;;;;;;;13.68;12.23;;;23.30;99.90;;;;;;6300721;22;20027;-90
2023/05/21 08:15:29;;;;;;;15.77;12.15;;;22.80;99.90;;;;;;6298688;22;20054;-92
2023/05/21 08:18:17;;;;;;;13.18;11.80;;;22.90;99.90;;;;;;6296178;22;20019;-88
2023/05/21 08:21:05;;;;;;;15.18;12.93;;;22.90;99.90;;;;;;6300282;22;20028;-90
2023/05/21 08:23:53;;;;;;;14.05;11.80;;;22.60;99.90;;;;;;6304857;22;20028;-88
2023/05/21 08:26:41;;;;;;;15.13;11.93;;;22.30;99.90;;;;;;6307087;22;20049;-91
2023/05/21 08:29:28;;;;;;;13.43;11.30;;;22.80;99.90;;;;;;6307532;22;20023;-89
2023/05/21 08:32:17;;;;;;;16.70;11.57;;;23.60;99.90;;;;;;6309902;22;20093;-90
2023/05/21 08:35:10;;;;;;;14.85;11.13;;;24.20;99.90;;;;;;6307558;22;20095;-88
2023/05/21 08:37:59;;;;;;;14.35;10.85;;;24.60;99.90;;;;;;6305361;22;20072;-90
2023/05/21 08:40:51;;;;;;;11.68;10.48;;;24.90;99.90;;;;;;6302246;22;20019;-94
2023/05/21 08:43:51;;;;;;;13.75;10.75;;;26.00;99.90;;;;;;6236166;22;20381;-90
2023/05/21 08:46:58;;;;;;;14.43;11.55;;;26.30;99.90;;;;;;6298364;22;20019;-91
2023/05/21 08:50:00;;;;;;;13.40;11.13;;;26.50;99.90;;;;;;6294693;22;20085;-91
2023/05/21 08:52:49;;;;;;;15.10;10.68;;;26.50;99.90;;;;;;6298741;22;20023;-89
2023/05/21 08:55:37;;;;;;;16.05;12.13;;;26.30;99.90;;;;;;6297851;22;20019;-90
2023/05/21 08:58:26;;;;;;;12.98;11.57;;;25.70;99.90;;;;;;6293427;22;20050;-89
2023/05/21 09:01:17;;;;;;;12.90;11.43;;;25.50;99.90;;;;;;6291853;22;20024;-91
2023/05/21 09:11:48;;;;;;;13.23;9.68;;;26.80;99.90;;;;;;6223997;23;20077;-88
2023/05/21 09:14:51;;;;;;;11.52;9.88;;;27.40;99.90;;;;;;6195197;22;20166;-88
2023/05/21 09:17:47;;;;;;;12.52;10.68;;;27.90;99.90;;;;;;6293923;22;20030;-91
2023/05/21 09:20:34;;;;;;;12.35;10.15;;;28.10;99.90;;;;;;6292770;22;20065;-92
2023/05/21 09:23:21;;;;;;;11.82;10.63;;;27.90;99.90;;;;;;6287477;22;20044;-91
2023/05/21 09:26:11;;;;;;;13.30;11.10;;;28.00;99.90;;;;;;6287330;22;20027;-90
2023/05/21 09:29:00;;;;;;;13.13;10.77;;;27.80;99.90;;;;;;6287303;22;20038;-91
2023/05/21 09:31:49;;;;;;;11.52;10.32;;;27.80;99.90;;;;;;6287683;22;20043;-91
2023/05/21 09:34:40;;;;;;;13.43;10.80;;;28.30;99.90;;;;;;6289495;22;20034;-90
2023/05/21 09:37:31;;;;;;;11.23;9.20;;;28.80;99.90;;;;;;6294018;22;20081;-88
2023/05/21 09:40:23;;;;;;;12.87;10.47;;;28.70;99.90;;;;;;6295826;22;20023;-89
2023/05/21 09:43:15;;;;;;;13.10;10.95;;;28.20;99.90;;;;;;6293466;22;20023;-89
2023/05/21 09:46:02;;;;;;;13.55;10.35;;;27.40;99.90;;;;;;6291314;22;20023;-88
2023/05/21 09:48:50;;;;;;;16.13;10.95;;;27.50;99.90;;;;;;6289625;22;20110;-89
2023/05/21 09:51:38;;;;;;;13.40;12.00;;;28.00;99.90;;;;;;6285754;22;20039;-88
2023/05/21 09:54:52;;;;;;;15.80;11.50;;;27.90;99.90;;;;;;6309018;22;20027;-88
2023/05/21 09:57:46;;;;;;;10.60;9.48;;;28.10;99.90;;;;;;6285321;22;20027;-88
2023/05/21 10:00:37;;;;;;;11.55;9.90;;;28.70;99.90;;;;;;6284344;22;20054;-87
2023/05/21 10:03:27;;;;;;;12.63;10.18;;;29.20;99.90;;;;;;6284714;22;20465;-88
2023/05/21 10:06:17;;;;;;;10.90;9.15;;;29.30;99.90;;;;;;6286797;22;20069;-92
2023/05/21 10:09:09;;;;;;;10.77;9.68;;;29.80;99.90;;;;;;6284348;22;20370;-90
2023/05/21 10:11:57;;;;;;;10.68;9.57;;;29.90;99.90;;;;;;6287928;22;20042;-90
2023/05/21 10:15:06;;;;;;;12.27;9.10;;;29.40;99.90;;;;;;6287197;22;20027;-90
2023/05/21 10:17:55;;;;;;;9.68;8.68;;;29.20;99.90;;;;;;6285947;22;20045;-87
2023/05/21 10:20:45;;;;;;;11.82;9.65;;;29.50;99.90;;;;;;6307190;22;20034;-92
2023/05/21 10:23:35;;;;;;;11.20;9.70;;;29.10;99.90;;;;;;6285774;22;20086;-84
2023/05/21 10:26:38;;;;;;;11.02;9.93;;;29.10;99.90;;;;;;6291214;22;20028;-91
2023/05/21 10:29:27;;;;;;;10.85;9.57;;;29.00;99.90;;;;;;6283720;22;20102;-90
2023/05/21 10:32:15;;;;;;;9.75;8.75;;;28.90;99.90;;;;;;6285732;22;20062;-87
2023/05/21 10:35:04;;;;;;;13.85;9.10;;;28.40;99.90;;;;;;6284414;22;20500;-86
2023/05/21 10:37:55;;;;;;;9.57;8.57;;;29.10;99.90;;;;;;6285252;22;20045;-92
2023/05/21 10:40:44;;;;;;;9.80;8.80;;;29.50;99.90;;;;;;6306188;22;20023;-89
2023/05/21 10:43:39;;;;;;;12.40;9.43;;;29.50;99.90;;;;;;6285289;22;20030;-88
2023/05/21 10:46:54;;;;;;;13.07;9.55;;;29.10;99.90;;;;;;6284610;22;20054;-90
2023/05/21 10:50:20;;;;;;;10.85;8.68;;;29.60;99.90;;;;;;6289801;22;20023;-88
2023/05/21 10:53:21;;;;;;;10.32;9.18;;;29.50;99.90;;;;;;6293760;22;20334;-88
2023/05/21 10:56:14;;;;;;;9.75;8.50;;;29.30;99.90;;;;;;6285602;22;20023;-89
2023/05/21 10:59:22;;;;;;;12.85;9.18;;;30.40;99.90;;;;;;6286242;22;20023;-88
2023/05/21 11:02:33;;;;;;;13.02;8.45;;;31.10;99.90;;;;;;6183599;23;20032;-88
2023/05/21 11:06:02;;;;;;;10.10;7.45;;;31.00;99.90;;;;;;6184048;23;20053;-87
2023/05/21 11:08:52;;;;;;;9.82;7.45;;;31.20;99.90;;;;;;6151095;23;20131;-86
2023/05/21 11:11:42;;;;;;;10.95;7.80;;;31.30;99.90;;;;;;6182503;23;20029;-86
2023/05/21 11:14:38;;;;;;;8.35;7.03;;;31.60;99.90;;;;;;6182650;23;20348;-88
2023/05/21 11:17:56;;;;;;;9.27;7.22;;;30.80;99.90;;;;;;6167229;23;20032;-85
2023/05/21 11:20:50;;;;;;;10.75;8.02;;;30.80;99.90;;;;;;6281328;22;20046;-91
2023/05/21 11:24:02;;;;;;;8.90;7.45;;;29.70;99.90;;;;;;6281516;22;20027;-86
2023/05/21 11:26:51;;;;;;;11.88;8.20;;;29.80;99.90;;;;;;6283210;22;20109;-87
2023/05/21 11:29:43;;;;;;;9.60;8.60;;;29.70;99.90;;;;;;6283450;22;20027;-85
2023/05/21 11:32:30;;;;;;;9.07;7.85;;;29.30;99.90;;;;;;6281451;22;20039;-85
2023/05/21 11:35:21;;;;;;;12.35;9.35;;;29.60;99.90;;;;;;6283901;22;20023;-89
2023/05/21 11:38:09;;;;;;;11.15;9.48;;;29.70;99.90;;;;;;6284157;22;20023;-89
2023/05/21 11:41:02;;;;;;;11.40;8.98;;;29.50;99.90;;;;;;6284523;22;20023;-87
2023/05/21 11:44:00;;;;;;;9.25;8.27;;;29.00;99.90;;;;;;6285313;22;20029;-86
2023/05/21 11:46:47;;;;;;;10.25;8.73;;;29.50;99.90;;;;;;6285065;22;20027;-86
2023/05/21 11:49:48;;;;;;;10.77;9.02;;;30.20;99.90;;;;;;6286667;22;20106;-88
2023/05/21 11:52:40;;;;;;;8.85;8.00;;;29.00;99.90;;;;;;6285782;22;20061;-87
2023/05/21 11:55:28;;;;;;;10.40;7.88;;;28.50;99.90;;;;;;6286667;22;20118;-86
2023/05/21 11:58:18;;;;;;;8.25;7.40;;;28.40;99.90;;;;;;6284463;22;20019;-87
2023/05/21 12:01:06;;;;;;;8.77;7.63;;;28.10;99.90;;;;;;6285414;22;20030;-88
2023/05/21 12:03:53;;;;;;;10.07;7.97;;;27.80;99.90;;;;;;6284745;22;20023;-88
2023/05/21 12:06:44;;;;;;;8.45;7.00;;;27.90;99.90;;;;;;6291588;22;20011;-89
2023/05/21 12:09:39;;;;;;;7.70;6.90;;;27.90;99.90;;;;;;6286096;22;20047;-89
2023/05/21 12:12:27;;;;;;;7.15;6.43;;;27.90;99.90;;;;;;6284940;22;20057;-87
2023/05/21 12:15:28;;;;;;;10.32;6.97;;;28.00;99.90;;;;;;6288847;22;20334;-89
2023/05/21 12:18:18;;;;;;;8.70;7.20;;;28.00;99.90;;;;;;6285918;22;20019;-87
2023/05/21 12:21:06;;;;;;;7.57;6.78;;;27.80;99.90;;;;;;6287224;22;20023;-88
2023/05/21 12:23:54;;;;;;;7.28;6.57;;;27.80;99.90;;;;;;6284638;22;20049;-86
2023/05/21 12:26:44;;;;;;;9.57;7.95;;;28.40;99.90;;;;;;6286438;22;20031;-86
2023/05/21 12:29:36;;;;;;;11.10;8.50;;;28.20;99.90;;;;;;6286531;22;20398;-85
2023/05/21 12:32:27;;;;;;;11.20;8.20;;;28.00;99.90;;;;;;6287751;22;20034;-87
2023/05/21 12:35:22;;;;;;;8.75;7.88;;;27.20;99.90;;;;;;6285544;22;20019;-87
2023/05/21 12:38:10;;;;;;;8.65;7.55;;;27.20;99.90;;;;;;6283881;22;20019;-87
2023/05/21 12:41:05;;;;;;;11.15;8.52;;;27.30;99.90;;;;;;6284282;22;20031;-86
2023/05/21 12:43:53;;;;;;;10.32;7.93;;;27.30;99.90;;;;;;6285379;22;20035;-87
2023/05/21 12:46:40;;;;;;;13.23;8.13;;;27.20;99.90;;;;;;6286729;22;20027;-87
2023/05/21 12:49:33;;;;;;;9.93;7.35;;;26.70;99.90;;;;;;6284201;22;20027;-88
2023/05/21 12:52:21;;;;;;;9.05;7.40;;;27.00;99.90;;;;;;6284095;22;20027;-85
2023/05/21 12:55:11;;;;;;;8.70;7.00;;;26.80;99.90;;;;;;6284136;22;20026;-89
2023/05/21 12:58:03;;;;;;;7.70;6.82;;;26.70;99.90;;;;;;6284611;22;20031;-86
2023/05/21 13:00:54;;;;;;;8.07;7.27;;;26.40;99.90;;;;;;6284656;22;20030;-87
2023/05/21 13:03:44;;;;;;;8.95;7.50;;;26.50;99.90;;;;;;6285506;22;20245;-90
2023/05/21 13:06:41;;;;;;;9.07;7.47;;;26.20;99.90;;;;;;6283204;22;20027;-86
2023/05/21 13:09:36;;;;;;;10.50;7.18;;;26.00;99.90;;;;;;6282740;22;20279;-88
2023/05/21 13:12:25;;;;;;;9.45;7.57;;;25.80;99.90;;;;;;6284303;22;20086;-86
2023/05/21 13:15:13;;;;;;;9.68;7.75;;;25.60;99.90;;;;;;6284405;22;20020;-88
2023/05/21 13:18:01;;;;;;;8.55;7.75;;;25.80;99.90;;;;;;6284001;22;20034;-90
2023/05/21 13:20:50;;;;;;;11.02;7.85;;;25.70;99.90;;;;;;6283206;22;20023;-89
2023/05/21 13:23:37;;;;;;;9.38;7.55;;;25.00;99.90;;;;;;6283448;22;20050;-87
2023/05/21 13:26:27;;;;;;;11.50;7.63;;;25.20;99.90;;;;;;6284530;22;20140;-84
2023/05/21 13:29:16;;;;;;;9.52;8.23;;;25.00;99.90;;;;;;6284828;22;20027;-87
2023/05/21 13:32:07;;;;;;;12.02;7.90;;;25.20;99.90;;;;;;6305121;22;20375;-89
2023/05/21 13:35:00;;;;;;;12.05;8.43;;;24.80;99.90;;;;;;6285312;22;20023;-90
2023/05/21 13:37:47;;;;;;;9.57;8.23;;;24.60;99.90;;;;;;6284161;22;20080;-89
2023/05/21 13:40:35;;;;;;;11.60;8.05;;;24.50;99.90;;;;;;6284089;22;20023;-88
2023/05/21 13:43:25;;;;;;;9.88;7.50;;;24.60;99.90;;;;;;6284519;22;20023;-90
2023/05/21 13:46:12;;;;;;;9.52;7.70;;;24.70;99.90;;;;;;6282856;22;20373;-89
2023/05/21 13:49:03;;;;;;;12.40;7.90;;;24.80;99.90;;;;;;6282643;22;20058;-89
2023/05/21 13:51:50;;;;;;;11.60;7.50;;;24.80;99.90;;;;;;6283215;22;20434;-86
2023/05/21 13:54:41;;;;;;;8.90;7.40;;;24.60;99.90;;;;;;6284200;22;20426;-86
2023/05/21 13:57:29;;;;;;;7.85;7.05;;;24.40;99.90;;;;;;6283080;22;20034;-89
2023/05/21 14:00:17;;;;;;;9.57;7.13;;;24.10;99.90;;;;;;6284478;22;20023;-88
2023/05/21 14:03:06;;;;;;;9.13;7.00;;;24.10;99.90;;;;;;6284637;22;20023;-88
2023/05/21 14:05:55;;;;;;;10.75;6.63;;;24.20;99.90;;;;;;6286336;22;20031;-89
2023/05/21 14:08:43;;;;;;;8.70;7.13;;;23.90;99.90;;;;;;6285524;22;20088;-88
2023/05/21 14:11:31;;;;;;;9.65;6.82;;;24.00;99.90;;;;;;6283280;22;20031;-85
2023/05/21 14:14:18;;;;;;;10.02;7.22;;;23.90;99.90;;;;;;6285461;22;20038;-86
2023/05/21 14:17:08;;;;;;;9.05;7.22;;;23.80;99.90;;;;;;6284140;22;20019;-85
2023/05/21 14:19:56;;;;;;;9.32;7.30;;;23.80;99.90;;;;;;6284548;22;20271;-88
2023/05/21 14:22:45;;;;;;;11.23;6.90;;;23.90;99.90;;;;;;6286284;22;20023;-89
2023/05/21 14:25:35;;;;;;;7.63;6.80;;;23.80;99.90;;;;;;6284997;22;20037;-87
2023/05/21 14:28:23;;;;;;;7.72;6.68;;;23.90;99.90;;;;;;6285641;22;20341;-87
2023/05/21 14:31:11;;;;;;;7.88;6.72;;;24.10;99.90;;;;;;6286039;22;20444;-86
2023/05/21 14:33:58;;;;;;;10.10;6.03;;;24.20;99.90;;;;;;6286496;22;20023;-88
2023/05/21 14:36:46;;;;;;;8.30;6.55;;;24.30;99.90;;;;;;6284276;22;20104;-88
2023/05/21 14:39:37;;;;;;;8.63;6.03;;;24.60;99.90;;;;;;6282499;22;20476;-85